• Join FlightAware (Why Join?)
  • Login
  • US Flag 
04:03AM EDT


 

Airport Tracker/Info


-or-


 

Live Flight TrackerFlight Track Log ✈ SWA35 ✈ 17-May-2013 ✈ KDAL - KHOU

Flight Track Log - Related Links

Times and Time Zones

All times are in EDT time to prevent confusion due to time zone crossing. See the SWA35 flight status page for this flight to view local times or setup timezone preferences in your user account.

Time Position Orientation Groundspeed Altitude Reporting Facility
EDT Latitude Longitude Course Direction KTS MPH feet Rate Location/Type
04:18PM 32.8333 -96.8333 121° Southeast 167 192 1,300  Level Dallas / Fort Worth TRACON
04:18PM 32.8167 -96.8000 121° Southeast 184 212 2,400 2,460 Climbing Dallas / Fort Worth TRACON
04:19PM 32.7667 -96.7500 140° Southeast 214 246 5,500 2,220 Climbing Dallas / Fort Worth TRACON
04:21PM 32.6397 -96.8017 199° South 286 329 9,000 2,040 Climbing Fort Worth Center
04:22PM 32.5606 -96.8317 198° South 297 342 11,400 2,100 Climbing Fort Worth Center
04:23PM 32.4711 -96.8692 199° South 314 361 13,300 1,860 Climbing Fort Worth Center
04:24PM 32.3711 -96.9067 198° South 344 396 15,200 2,160 Climbing Fort Worth Center
04:25PM 32.2856 -96.9342 195° South 349 402 17,700 2,820 Climbing Fort Worth Center
04:26PM 32.1664 -96.9200 174° South 369 425 20,800 2,820 Climbing Fort Worth Center
04:27PM 32.0517 -96.8986 171° South 391 450 23,400 2,460 Climbing Fort Worth Center
04:28PM 31.9367 -96.8797 172° South 421 484 25,800 2,280 Climbing Fort Worth Center
04:29PM 31.8156 -96.8583 171° South 436 502 28,000 1,980 Climbing Fort Worth Center
04:32PM 31.5283 -96.8089 172° South 433 498 33,000 1,380 Climbing Houston Center
04:33PM 31.3864 -96.7544 162° South 469 540 33,000  Level Houston Center
04:34PM 31.2633 -96.6969 158° South 469 540 33,000 -1,320 Level Houston Center
04:35PM 31.1378 -96.6372 158° South 476 548 30,300 -2,520 Descending Houston Center
04:36PM 31.0156 -96.5806 158° South 467 537 27,800 -2,340 Descending Houston Center
04:37PM 30.8992 -96.5275 159° South 448 516 25,500 -2,220 Descending Houston Center
04:38PM 30.7867 -96.4744 158° South 436 502 23,200 -2,160 Descending Houston Center
04:39PM 30.6786 -96.4253 159° South 420 483 21,100 -2,040 Descending Houston Center
04:40PM 30.5747 -96.3764 158° South 403 464 19,000 -2,160 Descending Houston Center
04:41PM 30.4742 -96.3292 158° South 388 447 16,700 -2,280 Descending Houston Center
04:42PM 30.3608 -96.2772 158° South 374 430 14,300 -2,220 Descending Houston Center
04:43PM 30.3061 -96.2525 159° South 363 418 13,100 -2,040 Descending Houston Center
04:43PM 30.2664 -96.2339 158° South 362 417 12,200 -2,160 Descending Houston Center
04:44PM 30.2167 -96.2117 159° South 354 407 11,100 -1,200 Descending Houston Center
04:44PM 30.1750 -96.1914 157° South 351 404 11,000 -120 Descending Houston Center
04:45PM 30.1267 -96.1639 154° Southeast 337 388 11,000  Level Houston Center
04:45PM 30.0839 -96.1411 155° Southeast 341 392 11,000  Level Houston Center
04:46PM 30.0389 -96.1183 156° South 345 397 11,000  Level Houston Center
04:46PM 29.9961 -96.0950 155° Southeast 346 398 11,000  Level Houston Center
04:47PM 29.9508 -96.0706 155° Southeast 341 392 11,000  Level Houston Center
04:47PM 29.9086 -96.0486 156° South 345 397 11,000  Level Houston Center
04:48PM 29.8539 -96.0189 155° Southeast 341 392 11,000  Level Houston Center
04:48PM 29.8208 -96.0028 157° South 341 392 11,000  Level Houston Center
04:49PM 29.7681 -95.9733 154° Southeast 337 388 11,000  Level Houston Center
04:49PM 29.7422 -95.9500 142° Southeast 326 375 11,000 -840 Level Houston Center
04:50PM 29.7078 -95.9056 132° Southeast 294 338 10,200 -1,260 Descending Houston Center
04:50PM 29.6847 -95.8797 136° Southeast 304 350 9,700 -1,620 Descending Houston Center
04:51PM 29.6486 -95.8308 130° Southeast 289 333 8,600 -1,800 Descending Houston Center
04:51PM 29.6194 -95.7983 136° Southeast 292 336 7,900 -1,440 Descending Houston Center
04:52PM 29.5992 -95.7692 129° Southeast 287 330 7,300 -1,500 Descending Houston Center
04:53PM 29.5975 -95.7192 92° East 293 337 6,400 -1,320 Descending Houston Center
04:53PM 29.6147 -95.6858 59° Northeast 293 337 6,000 -420 Descending Houston Center
04:54PM 29.6342 -95.6392 64° Northeast 282 325 6,000 -900 Level Houston Center
04:54PM 29.6517 -95.6044 60° Northeast 282 325 5,100 -1,860 Descending Houston Center
04:55PM 29.6744 -95.5589 60° Northeast 285 328 4,100 -1,620 Descending Houston Center
04:55PM 29.6983 -95.5172 57° Northeast 302 348 3,500 -1,200 Descending Houston Center
04:56PM 29.7211 -95.4789 56° Northeast 295 339 2,900 -1,320 Descending Houston Center
04:56PM 29.7417 -95.4400 59° Northeast 284 327 2,200 -900 Descending Houston Center
04:57PM 29.7442 -95.3972 86° East 282 325 2,000 -240 Descending Houston Center
04:57PM 29.7247 -95.3697 129° Southeast 208 239 2,000 -720 Level Houston Center
04:58PM 29.6967 -95.3406 138° Southeast 226 260 1,300 -900 Descending Houston Center
04:58PM 29.6850 -95.3264 133° Southeast 190 219 1,100 -780 Descending Houston Center
04:59PM 29.6653 -95.3031 134° Southeast 188 216 500 -780 Descending Houston Center
04:59PM 29.6544 -95.2917 138° Southeast 124 143 300 -420 Descending Houston Center
05:00PM 29.6439 -95.2778 131° Southeast 157 181 100 -300 Descending Houston Center